createdAt,value
2018-11-27T00:00:22.975Z,34.07
2018-11-27T00:02:53.070Z,36.27
2018-11-27T00:05:21.748Z,32.83
2018-11-27T00:07:50.310Z,32.33
2018-11-27T00:10:19.184Z,34.70
2018-11-27T00:12:47.847Z,33.87
2018-11-27T00:15:16.470Z,34.80
2018-11-27T00:17:45.121Z,35.13
2018-11-27T00:20:14.554Z,32.10
2018-11-27T00:22:43.175Z,37.70
2018-11-27T00:25:16.368Z,36.87
2018-11-27T00:27:44.965Z,33.03
2018-11-27T00:30:16.017Z,34.90
2018-11-27T00:32:44.620Z,29.87
2018-11-27T00:35:14.312Z,28.17
2018-11-27T00:37:42.889Z,29.43
2018-11-27T00:40:16.039Z,30.73
2018-11-27T00:42:44.636Z,29.00
2018-11-27T00:45:14.554Z,29.00
2018-11-27T00:47:43.839Z,29.97
2018-11-27T00:50:14.625Z,34.57
2018-11-27T00:52:43.279Z,32.33
2018-11-27T00:55:14.178Z,27.90
2018-11-27T00:57:43.433Z,28.83
2018-11-27T01:00:21.022Z,30.43
2018-11-27T01:02:49.670Z,26.40
2018-11-27T01:05:20.786Z,28.47
2018-11-27T01:07:49.348Z,28.80
2018-11-27T01:10:20.119Z,29.00
2018-11-27T01:12:48.718Z,28.63
2018-11-27T01:15:17.408Z,27.00
2018-11-27T01:17:49.111Z,27.60
2018-11-27T01:20:19.796Z,25.97
2018-11-27T01:22:48.445Z,29.60
2018-11-27T01:25:17.163Z,30.77
2018-11-27T01:27:45.744Z,28.90
2018-11-27T01:30:15.567Z,26.93
2018-11-27T01:32:44.350Z,29.27
2018-11-27T01:35:14.781Z,30.87
2018-11-27T01:37:43.494Z,32.07
2018-11-27T01:40:19.231Z,30.13
2018-11-27T01:42:49.026Z,26.47
2018-11-27T01:45:18.849Z,29.50
2018-11-27T01:47:47.577Z,27.13
2018-11-27T01:50:17.168Z,31.73
2018-11-27T01:52:45.819Z,29.63
2018-11-27T01:55:15.484Z,30.97
2018-11-27T01:57:44.181Z,30.77
2018-11-27T02:00:32.363Z,30.53
2018-11-27T02:03:01.731Z,29.73
2018-11-27T02:05:31.055Z,31.80
2018-11-27T02:07:59.637Z,30.37
2018-11-27T02:10:28.238Z,27.77
2018-11-27T02:13:01.254Z,29.83
2018-11-27T02:15:28.423Z,30.17
2018-11-27T02:17:57.084Z,26.90
2018-11-27T02:20:25.735Z,38.07
2018-11-27T02:22:54.339Z,37.33
2018-11-27T02:25:27.245Z,29.80
2018-11-27T02:27:55.896Z,29.63
2018-11-27T02:30:25.502Z,28.83
2018-11-27T02:32:54.098Z,25.00
2018-11-27T02:35:24.701Z,29.10
2018-11-27T02:37:54.302Z,25.90
2018-11-27T02:40:23.189Z,31.93
2018-11-27T02:42:51.795Z,30.90
2018-11-27T02:45:22.403Z,27.53
2018-11-27T02:47:51.814Z,31.03
2018-11-27T02:50:21.644Z,27.90
2018-11-27T02:52:50.261Z,32.40
2018-11-27T02:55:21.838Z,29.47
2018-11-27T02:57:50.468Z,32.33
2018-11-27T03:00:21.262Z,28.97
2018-11-27T03:02:49.914Z,30.60
2018-11-27T03:05:22.576Z,32.23
2018-11-27T03:07:51.228Z,30.23
2018-11-27T03:10:19.915Z,32.00
2018-11-27T03:12:48.528Z,31.00
2018-11-27T03:15:17.910Z,27.37
2018-11-27T03:17:46.542Z,28.27
2018-11-27T03:20:16.507Z,28.17
2018-11-27T03:22:45.176Z,29.00
2018-11-27T03:25:16.756Z,28.97
2018-11-27T03:27:46.123Z,27.87
2018-11-27T03:30:16.090Z,29.43
2018-11-27T03:32:44.687Z,33.43
2018-11-27T03:35:14.394Z,31.00
2018-11-27T03:37:43.178Z,29.33
2018-11-27T03:40:14.208Z,33.00
2018-11-27T03:42:42.844Z,33.53
2018-11-27T03:45:13.525Z,33.73
2018-11-27T03:47:42.089Z,26.93
2018-11-27T03:50:17.758Z,32.37
2018-11-27T03:52:46.371Z,30.57
2018-11-27T03:55:15.267Z,30.07
2018-11-27T03:57:43.907Z,30.53
2018-11-27T04:00:21.129Z,26.57
2018-11-27T04:02:52.116Z,29.40
2018-11-27T04:05:20.887Z,32.43
2018-11-27T04:07:49.511Z,32.03
2018-11-27T04:10:19.311Z,29.13
2018-11-27T04:12:47.887Z,30.63
2018-11-27T04:15:16.772Z,31.63
2018-11-27T04:17:45.344Z,26.07
2018-11-27T04:20:14.392Z,29.53
2018-11-27T04:22:43.692Z,29.60
2018-11-27T04:25:16.437Z,30.80
2018-11-27T04:27:45.669Z,26.87
2018-11-27T04:30:16.763Z,29.73
2018-11-27T04:32:45.449Z,28.70
2018-11-27T04:35:16.728Z,27.73
2018-11-27T04:37:45.395Z,30.57
2018-11-27T04:40:17.895Z,29.27
2018-11-27T04:42:46.570Z,28.53
2018-11-27T04:45:16.530Z,31.13
2018-11-27T04:47:45.187Z,29.83
2018-11-27T04:50:14.773Z,32.27
2018-11-27T04:52:43.617Z,27.50
2018-11-27T04:55:17.052Z,30.87
2018-11-27T04:57:46.605Z,26.93
2018-11-27T05:00:16.475Z,29.43
2018-11-27T05:02:48.148Z,32.13
2018-11-27T05:05:17.416Z,27.80
2018-11-27T05:07:46.184Z,27.73
2018-11-27T05:10:17.108Z,31.53
2018-11-27T05:12:45.767Z,27.60
2018-11-27T05:15:16.706Z,32.10
2018-11-27T05:17:48.043Z,32.93
2018-11-27T05:20:14.962Z,27.03
2018-11-27T05:22:43.590Z,28.70
2018-11-27T05:25:15.222Z,30.80
2018-11-27T05:27:46.106Z,27.00
2018-11-27T05:30:16.844Z,30.80
2018-11-27T05:32:45.542Z,26.43
2018-11-27T05:35:16.079Z,29.30
2018-11-27T05:37:45.944Z,24.73
2018-11-27T05:40:16.064Z,28.20
2018-11-27T05:42:44.828Z,25.13
2018-11-27T05:45:16.725Z,27.40
2018-11-27T05:47:45.388Z,29.10
2018-11-27T05:50:15.277Z,25.60
2018-11-27T05:52:43.948Z,30.50
2018-11-27T05:55:13.395Z,26.57
2018-11-27T05:57:42.419Z,25.87
2018-11-27T06:00:19.386Z,26.93
2018-11-27T06:02:49.084Z,27.13
2018-11-27T06:05:20.591Z,28.40
2018-11-27T06:07:49.251Z,26.67
2018-11-27T06:10:18.857Z,28.53
2018-11-27T06:12:47.522Z,25.10
2018-11-27T06:15:17.421Z,31.40
2018-11-27T06:17:47.073Z,31.30
2018-11-27T06:20:19.012Z,31.90
2018-11-27T06:22:47.592Z,27.87
2018-11-27T06:25:26.979Z,26.77
2018-11-27T06:27:59.843Z,24.73
2018-11-27T06:30:29.464Z,23.67
2018-11-27T06:32:58.190Z,22.30
2018-11-27T06:35:30.236Z,31.43
2018-11-27T06:37:58.916Z,24.17
2018-11-27T06:40:29.011Z,32.13
2018-11-27T06:42:58.021Z,27.77
2018-11-27T06:45:26.740Z,27.60
2018-11-27T06:47:55.329Z,28.57
2018-11-27T06:50:24.315Z,26.57
2018-11-27T06:52:52.952Z,26.90
2018-11-27T06:55:22.769Z,23.00
2018-11-27T06:57:51.459Z,24.33
2018-11-27T07:00:22.403Z,27.37
2018-11-27T07:02:51.017Z,26.83
2018-11-27T07:05:19.933Z,27.17
2018-11-27T07:07:48.634Z,28.03
2018-11-27T07:10:20.692Z,27.80
2018-11-27T07:12:50.526Z,28.87
2018-11-27T07:15:20.557Z,27.57
2018-11-27T07:17:49.185Z,25.70
2018-11-27T07:20:18.004Z,26.40
2018-11-27T07:22:46.649Z,29.20
2018-11-27T07:25:16.059Z,32.73
2018-11-27T07:27:46.810Z,26.30
2018-11-27T07:30:17.663Z,30.13
2018-11-27T07:32:46.346Z,25.50
2018-11-27T07:35:15.612Z,23.73
2018-11-27T07:37:44.273Z,26.83
2018-11-27T07:40:16.983Z,25.77
2018-11-27T07:42:45.734Z,26.50
2018-11-27T07:45:17.350Z,28.10
2018-11-27T07:47:46.052Z,28.73
2018-11-27T07:50:15.628Z,26.57
2018-11-27T07:52:44.214Z,27.10
2018-11-27T07:55:16.954Z,24.63
2018-11-27T07:57:45.684Z,35.97
2018-11-27T08:00:22.662Z,25.33
2018-11-27T08:02:52.267Z,30.20
2018-11-27T08:05:29.536Z,22.20
2018-11-27T08:07:58.301Z,26.87
2018-11-27T08:10:28.163Z,24.00
2018-11-27T08:12:56.808Z,21.87
2018-11-27T08:15:26.707Z,24.43
2018-11-27T08:17:55.346Z,22.43
2018-11-27T08:20:28.233Z,27.33
2018-11-27T08:22:56.803Z,20.37
2018-11-27T08:25:25.409Z,22.13
2018-11-27T08:27:54.001Z,20.53
2018-11-27T08:30:23.469Z,20.70
2018-11-27T08:32:52.746Z,19.97
2018-11-27T08:35:23.508Z,16.77
2018-11-27T08:37:53.160Z,17.13
2018-11-27T08:40:23.097Z,18.73
2018-11-27T08:42:51.793Z,21.67
2018-11-27T08:45:21.586Z,25.20
2018-11-27T08:47:51.139Z,22.30
2018-11-27T08:50:21.002Z,21.10
2018-11-27T08:52:50.876Z,24.23
2018-11-27T08:55:29.570Z,24.10
2018-11-27T08:57:58.470Z,25.07
2018-11-27T09:00:27.287Z,20.23
2018-11-27T09:02:55.910Z,20.37
2018-11-27T09:05:24.714Z,19.53
2018-11-27T09:07:53.398Z,18.37
2018-11-27T09:10:23.356Z,21.67
2018-11-27T09:12:52.053Z,22.53
2018-11-27T09:15:21.871Z,24.17
2018-11-27T09:18:24.755Z,23.80
2018-11-27T09:20:53.633Z,21.23
2018-11-27T09:23:22.244Z,23.87
2018-11-27T09:25:50.867Z,22.37
2018-11-27T09:28:19.523Z,21.27
2018-11-27T09:30:48.378Z,23.53
2018-11-27T09:33:17.013Z,25.63
2018-11-27T09:35:45.682Z,17.60
2018-11-27T09:38:14.299Z,23.83
2018-11-27T09:40:43.047Z,18.77
2018-11-27T09:43:11.675Z,21.13
2018-11-27T09:45:41.741Z,21.97
2018-11-27T09:48:10.326Z,22.27
2018-11-27T09:50:39.140Z,21.37
2018-11-27T09:53:10.008Z,20.97
2018-11-27T09:55:38.654Z,20.80
2018-11-27T09:58:07.525Z,25.23
2018-11-27T10:00:36.311Z,26.20
2018-11-27T10:03:10.992Z,26.93
2018-11-27T10:05:39.727Z,25.50
2018-11-27T10:08:09.012Z,24.13
2018-11-27T10:10:37.712Z,16.70
2018-11-27T10:13:07.342Z,17.23
2018-11-27T10:15:35.936Z,17.80
2018-11-27T10:18:04.556Z,19.47
2018-11-27T10:20:35.484Z,18.27
2018-11-27T10:23:04.717Z,19.63
2018-11-27T10:25:33.368Z,19.83
2018-11-27T10:28:02.038Z,20.97
2018-11-27T10:30:30.665Z,19.30
2018-11-27T10:32:59.533Z,20.17
2018-11-27T10:35:31.445Z,20.60
2018-11-27T10:38:00.006Z,18.93
2018-11-27T10:40:28.823Z,18.67
2018-11-27T10:42:57.462Z,18.67
2018-11-27T10:45:26.253Z,16.67
2018-11-27T10:47:55.725Z,17.23
2018-11-27T10:50:24.478Z,26.47
2018-11-27T10:52:56.409Z,22.60
2018-11-27T10:55:26.033Z,20.27
2018-11-27T10:57:54.680Z,20.90
2018-11-27T11:00:30.403Z,17.37
2018-11-27T11:03:07.645Z,16.90
2018-11-27T11:05:37.382Z,18.47
2018-11-27T11:08:06.358Z,25.00
2018-11-27T11:10:34.987Z,24.33
2018-11-27T11:13:03.497Z,27.10
2018-11-27T11:15:34.418Z,22.03
2018-11-27T11:18:04.237Z,22.87
2018-11-27T11:20:32.922Z,20.33
2018-11-27T11:23:01.458Z,19.70
2018-11-27T11:25:30.026Z,18.90
2018-11-27T11:27:59.297Z,18.97
2018-11-27T11:30:28.114Z,17.67
2018-11-27T11:32:56.756Z,15.10
2018-11-27T11:35:25.326Z,17.53
2018-11-27T11:37:54.445Z,16.27
2018-11-27T11:40:24.599Z,19.63
2018-11-27T11:42:56.278Z,14.90
2018-11-27T11:45:25.341Z,13.90
2018-11-27T11:47:54.255Z,14.13
2018-11-27T11:50:27.005Z,14.40
2018-11-27T11:53:13.115Z,14.13
2018-11-27T11:55:42.321Z,11.47
2018-11-27T11:58:10.965Z,16.53
2018-11-27T12:00:44.082Z,14.83
2018-11-27T12:03:12.714Z,16.57
2018-11-27T12:05:42.085Z,15.80
2018-11-27T12:08:10.663Z,14.90
2018-11-27T12:10:39.275Z,12.73
2018-11-27T12:13:09.324Z,15.73
2018-11-27T12:15:39.029Z,13.23
2018-11-27T12:18:08.701Z,16.00
2018-11-27T12:20:37.728Z,16.50
2018-11-27T12:23:07.954Z,18.60
2018-11-27T12:25:36.738Z,16.93
2018-11-27T12:28:06.023Z,17.13
2018-11-27T12:30:34.734Z,13.73
2018-11-27T12:33:03.371Z,14.80
2018-11-27T12:35:32.184Z,17.53
2018-11-27T12:38:00.868Z,16.33
2018-11-27T12:40:29.882Z,14.03
2018-11-27T12:42:58.741Z,18.07
2018-11-27T12:45:29.212Z,15.47
2018-11-27T12:47:58.881Z,17.97
2018-11-27T12:50:39.737Z,19.77
2018-11-27T12:53:09.623Z,16.43
2018-11-27T12:55:39.883Z,15.27
2018-11-27T12:58:08.583Z,17.37
2018-11-27T13:00:37.527Z,18.93
2018-11-27T13:03:06.335Z,16.57
2018-11-27T13:05:38.227Z,13.90
2018-11-27T13:08:17.874Z,16.80
2018-11-27T13:10:46.741Z,15.60
2018-11-27T13:13:15.362Z,14.90
2018-11-27T13:15:44.707Z,16.90
2018-11-27T13:18:13.390Z,14.87
2018-11-27T13:20:42.287Z,18.63
2018-11-27T13:23:10.884Z,15.87
2018-11-27T13:25:39.934Z,15.53
2018-11-27T13:28:10.093Z,12.57
2018-11-27T13:30:47.043Z,10.43
2018-11-27T13:33:21.541Z,11.77
2018-11-27T13:35:50.429Z,11.10
2018-11-27T13:38:19.059Z,14.07
2018-11-27T13:40:47.670Z,12.07
2018-11-27T13:43:22.454Z,13.70
2018-11-27T13:45:51.102Z,12.40
2018-11-27T13:48:19.722Z,12.20
2018-11-27T13:50:48.314Z,10.10
2018-11-27T13:53:16.924Z,12.47
2018-11-27T13:55:45.624Z,11.90
2018-11-27T13:58:14.170Z,10.83
2018-11-27T14:00:43.116Z,10.93
2018-11-27T14:03:11.745Z,13.83
2018-11-27T14:05:40.505Z,13.33
2018-11-27T14:08:09.978Z,10.43
2018-11-27T14:10:39.150Z,12.07
2018-11-27T14:13:08.700Z,9.83
2018-11-27T14:15:37.850Z,12.73
2018-11-27T14:18:07.001Z,10.43
2018-11-27T14:20:35.772Z,10.07
2018-11-27T14:23:04.530Z,10.87
2018-11-27T14:25:33.175Z,15.80
2018-11-27T14:28:01.735Z,15.47
2018-11-27T14:30:30.579Z,12.90
2018-11-27T14:32:59.154Z,13.17
2018-11-27T14:35:27.905Z,13.43
2018-11-27T14:37:56.634Z,12.63
2018-11-27T14:40:26.650Z,15.53
2018-11-27T14:42:56.261Z,12.40
2018-11-27T14:45:26.216Z,14.17
2018-11-27T14:47:57.113Z,19.00
2018-11-27T14:50:26.249Z,13.67
2018-11-27T14:52:54.904Z,16.87
2018-11-27T14:55:26.939Z,19.47
2018-11-27T14:57:55.649Z,18.13
2018-11-27T15:00:25.080Z,15.47
2018-11-27T15:02:54.025Z,17.73
2018-11-27T15:05:34.012Z,19.70
2018-11-27T15:08:03.120Z,21.43
2018-11-27T15:10:31.803Z,20.17
2018-11-27T15:13:00.424Z,34.63
2018-11-27T15:15:29.020Z,23.57
2018-11-27T15:17:57.584Z,23.23
2018-11-27T15:20:26.473Z,17.73
2018-11-27T15:22:55.065Z,21.17
2018-11-27T15:25:24.065Z,17.80
2018-11-27T15:27:52.688Z,19.67
2018-11-27T15:30:24.502Z,19.40
2018-11-27T15:32:54.513Z,19.53
2018-11-27T15:35:23.322Z,25.20
2018-11-27T15:37:51.947Z,27.33
2018-11-27T15:40:22.297Z,28.97
2018-11-27T15:42:51.275Z,31.33
2018-11-27T15:45:21.346Z,32.73
2018-11-27T15:47:50.198Z,34.93
2018-11-27T15:50:19.072Z,34.27
2018-11-27T15:52:47.928Z,31.73
2018-11-27T15:55:18.748Z,33.00
2018-11-27T15:57:48.801Z,31.40
2018-11-27T16:00:18.749Z,29.07
2018-11-27T16:02:47.515Z,32.03
2018-11-27T16:05:16.720Z,34.07
2018-11-27T16:07:45.695Z,37.30
2018-11-27T16:10:15.717Z,37.50
2018-11-27T16:12:44.415Z,35.93
2018-11-27T16:15:16.064Z,36.87
2018-11-27T16:17:44.652Z,39.70
2018-11-27T16:20:18.788Z,46.83
2018-11-27T16:22:48.496Z,41.30
2018-11-27T16:25:18.363Z,44.73
2018-11-27T16:27:47.148Z,44.27
2018-11-27T16:30:23.308Z,51.07
2018-11-27T16:32:52.100Z,42.70
2018-11-27T16:35:20.974Z,45.67
2018-11-27T16:37:50.915Z,41.13
2018-11-27T16:40:23.902Z,41.87
2018-11-27T16:42:52.462Z,37.30
2018-11-27T16:45:22.343Z,35.03
2018-11-27T16:47:51.343Z,42.40
2018-11-27T16:50:20.451Z,51.43
2018-11-27T16:52:49.459Z,57.13
2018-11-27T16:55:22.097Z,52.10
2018-11-27T16:57:50.665Z,51.97
2018-11-27T17:00:27.936Z,65.87
2018-11-27T17:02:58.565Z,66.57
2018-11-27T17:05:28.895Z,47.93
2018-11-27T17:07:57.607Z,51.53
2018-11-27T17:10:26.503Z,46.83
2018-11-27T17:12:56.592Z,43.43
2018-11-27T17:15:26.507Z,42.73
2018-11-27T17:17:55.230Z,38.93
2018-11-27T17:20:33.970Z,38.23
2018-11-27T17:23:05.477Z,43.00
2018-11-27T17:25:34.327Z,48.13
2018-11-27T17:28:04.895Z,51.47
2018-11-27T17:30:53.606Z,53.33
2018-11-27T17:33:26.950Z,49.90
2018-11-27T17:35:56.066Z,52.73
2018-11-27T17:38:24.976Z,53.07
2018-11-27T17:40:53.898Z,55.60
2018-11-27T17:43:22.881Z,53.77
2018-11-27T17:45:52.121Z,59.20
2018-11-27T17:48:21.005Z,61.60
2018-11-27T17:50:50.191Z,54.87
2018-11-27T17:53:18.994Z,54.37
2018-11-27T17:55:48.081Z,61.50
2018-11-27T17:58:22.635Z,62.97
2018-11-27T18:00:46.049Z,64.73
2018-11-27T18:03:14.735Z,65.33
2018-11-27T18:05:43.876Z,66.10
2018-11-27T18:08:12.623Z,70.57
2018-11-27T18:10:41.604Z,71.70
2018-11-27T18:13:10.470Z,72.90
2018-11-27T18:15:39.330Z,69.13
2018-11-27T18:18:08.358Z,63.67
2018-11-27T18:20:37.386Z,58.67
2018-11-27T18:23:06.327Z,65.33
2018-11-27T18:25:35.149Z,62.60
2018-11-27T18:28:03.961Z,62.00
2018-11-27T18:30:32.769Z,61.37
2018-11-27T18:33:01.518Z,61.80
2018-11-27T18:35:30.921Z,63.83
2018-11-27T18:37:59.970Z,60.97
2018-11-27T18:40:29.730Z,63.13
2018-11-27T18:42:58.781Z,66.70
2018-11-27T18:45:30.925Z,64.37
2018-11-27T18:47:59.893Z,67.33
2018-11-27T18:50:30.634Z,71.27
2018-11-27T18:52:59.579Z,70.23
2018-11-27T18:55:28.616Z,70.30
2018-11-27T18:57:59.027Z,71.63
2018-11-27T19:00:29.190Z,69.97
2018-11-27T19:02:58.570Z,69.50
2018-11-27T19:05:27.256Z,70.20
2018-11-27T19:07:56.489Z,67.30
2018-11-27T19:10:27.585Z,67.40
2018-11-27T19:12:56.587Z,67.43
2018-11-27T19:15:40.861Z,76.30
2018-11-27T19:18:13.659Z,78.47
2018-11-27T19:20:42.338Z,83.63
2018-11-27T19:23:11.032Z,92.93
2018-11-27T19:25:39.679Z,78.93
2018-11-27T19:28:09.008Z,86.07
2018-11-27T19:30:37.735Z,75.33
2018-11-27T19:33:06.792Z,76.63
2018-11-27T19:35:35.642Z,82.33
2018-11-27T19:38:04.800Z,83.70
2018-11-27T19:40:33.709Z,84.90
2018-11-27T19:43:02.578Z,78.07
2018-11-27T19:45:31.291Z,83.23
2018-11-27T19:47:59.923Z,78.50
2018-11-27T19:50:28.853Z,87.33
2018-11-27T19:52:57.779Z,86.37
2018-11-27T19:55:26.442Z,88.17
2018-11-27T19:57:55.143Z,93.50
2018-11-27T20:00:26.218Z,92.73
2018-11-27T20:02:55.122Z,96.40
2018-11-27T20:05:25.096Z,101.97
2018-11-27T20:07:54.171Z,93.33
2018-11-27T20:10:23.722Z,110.67
2018-11-27T20:12:52.618Z,115.50
2018-11-27T20:15:26.707Z,118.63
2018-11-27T20:17:55.840Z,115.80
2018-11-27T20:20:25.649Z,106.37
2018-11-27T20:22:55.303Z,102.47
2018-11-27T20:25:24.791Z,122.03
2018-11-27T20:27:53.864Z,113.93
2018-11-27T20:30:25.550Z,111.43
2018-11-27T20:32:56.555Z,119.40
2018-11-27T20:35:25.316Z,101.40
2018-11-27T20:37:54.731Z,97.23
2018-11-27T20:40:23.396Z,97.17
2018-11-27T20:42:52.073Z,95.30
2018-11-27T20:45:21.959Z,91.33
2018-11-27T20:47:53.165Z,84.80
2018-11-27T20:50:22.914Z,83.60
2018-11-27T20:52:51.797Z,87.53
2018-11-27T20:55:21.124Z,85.47
2018-11-27T20:57:54.259Z,85.77
2018-11-27T21:00:31.726Z,90.07
2018-11-27T21:03:01.355Z,85.20
2018-11-27T21:05:30.427Z,85.40
2018-11-27T21:07:59.329Z,93.67
2018-11-27T21:10:28.229Z,84.00
2018-11-27T21:12:56.959Z,87.27
2018-11-27T21:15:25.868Z,80.60
2018-11-27T21:17:54.687Z,91.90
2018-11-27T21:20:23.372Z,87.17
2018-11-27T21:22:52.255Z,92.07
2018-11-27T21:25:22.310Z,98.77
2018-11-27T21:28:01.653Z,90.50
2018-11-27T21:30:30.543Z,97.53
2018-11-27T21:32:59.415Z,93.10
2018-11-27T21:35:28.302Z,90.90
2018-11-27T21:37:57.037Z,98.17
2018-11-27T21:40:26.082Z,96.00
2018-11-27T21:42:54.828Z,91.07
2018-11-27T21:45:25.136Z,103.10
2018-11-27T21:47:54.684Z,93.70
2018-11-27T21:50:29.196Z,105.00
2018-11-27T21:52:58.856Z,110.40
2018-11-27T21:55:27.785Z,105.63
2018-11-27T21:57:56.515Z,99.87
2018-11-27T22:00:26.159Z,102.87
2018-11-27T22:02:55.249Z,105.07
2018-11-27T22:05:24.153Z,101.23
2018-11-27T22:07:53.125Z,112.70
2018-11-27T22:10:23.245Z,105.17
2018-11-27T22:12:55.156Z,103.87
2018-11-27T22:15:27.974Z,100.33
2018-11-27T22:17:56.811Z,97.63
2018-11-27T22:20:25.823Z,104.53
2018-11-27T22:22:54.539Z,106.13
2018-11-27T22:25:23.403Z,98.10
2018-11-27T22:27:52.310Z,102.07
2018-11-27T22:30:21.324Z,115.20
2018-11-27T22:32:51.214Z,117.03
2018-11-27T22:35:20.102Z,116.00
2018-11-27T22:37:48.765Z,129.40
2018-11-27T22:40:19.533Z,120.87
2018-11-27T22:42:48.676Z,138.60
2018-11-27T22:45:21.571Z,130.83
2018-11-27T22:47:50.165Z,129.63
2018-11-27T22:50:19.368Z,121.10
2018-11-27T22:52:48.020Z,118.27
2018-11-27T22:55:16.873Z,110.17
2018-11-27T22:57:45.475Z,98.30
2018-11-27T23:00:19.409Z,94.87
2018-11-27T23:02:48.057Z,97.93
2018-11-27T23:05:17.591Z,94.87
2018-11-27T23:07:46.251Z,102.03
2018-11-27T23:10:15.295Z,105.83
2018-11-27T23:12:44.969Z,95.87
2018-11-27T23:15:14.929Z,101.17
2018-11-27T23:17:43.947Z,102.10
2018-11-27T23:20:16.699Z,101.93
2018-11-27T23:22:45.332Z,93.63
2018-11-27T23:25:16.936Z,92.23
2018-11-27T23:27:45.504Z,93.30
2018-11-27T23:30:17.332Z,89.33
2018-11-27T23:32:45.936Z,89.40
2018-11-27T23:35:14.645Z,89.23
2018-11-27T23:37:43.286Z,75.23
2018-11-27T23:40:13.075Z,78.73
2018-11-27T23:42:42.098Z,83.07
2018-11-27T23:45:13.072Z,86.40
2018-11-27T23:47:41.665Z,72.77
2018-11-27T23:50:13.264Z,79.87
2018-11-27T23:52:42.169Z,82.43
2018-11-27T23:55:12.090Z,75.17
2018-11-27T23:57:41.117Z,77.80
